createdAt,value
2023-05-09T04:01:10.756Z,14.12
2023-05-09T04:05:22.478Z,14.13
2023-05-09T04:09:34.186Z,14.12
2023-05-09T04:13:45.889Z,14.12
2023-05-09T04:18:08.404Z,14.13
2023-05-09T04:22:20.633Z,14.16
2023-05-09T04:26:32.788Z,14.19
2023-05-09T04:30:45.683Z,14.22
2023-05-09T04:34:57.602Z,14.26
2023-05-09T04:39:14.449Z,14.31
2023-05-09T04:43:35.326Z,14.35
2023-05-09T04:47:47.040Z,14.38
2023-05-09T04:51:58.619Z,14.41
2023-05-09T04:56:10.957Z,14.43
2023-05-09T05:00:23.031Z,14.47
2023-05-09T05:04:34.692Z,14.52
2023-05-09T05:08:47.197Z,14.53
2023-05-09T05:12:59.167Z,14.53
2023-05-09T05:17:10.872Z,14.55
2023-05-09T05:21:22.734Z,14.61
2023-05-09T05:25:34.841Z,14.67
2023-05-09T05:29:47.055Z,14.72
2023-05-09T05:33:58.713Z,14.88
2023-05-09T05:38:10.858Z,15.08
2023-05-09T05:42:23.235Z,15.36
2023-05-09T05:46:35.465Z,15.62
2023-05-09T05:50:47.352Z,15.75
2023-05-09T05:55:01.579Z,15.87
2023-05-09T05:59:13.700Z,15.83
2023-05-09T06:03:25.680Z,15.95
2023-05-09T06:07:55.410Z,15.93
2023-05-09T06:12:07.268Z,15.92
2023-05-09T06:16:20.408Z,15.95
2023-05-09T06:20:36.131Z,16.14
2023-05-09T06:24:47.640Z,16.21
2023-05-09T06:28:59.200Z,16.58
2023-05-09T06:33:10.754Z,17.63
2023-05-09T06:37:34.119Z,18.72
2023-05-09T06:42:01.187Z,18.41
2023-05-09T06:46:16.941Z,18.08
2023-05-09T06:50:29.758Z,17.76
2023-05-09T06:54:42.481Z,17.97
2023-05-09T06:58:54.086Z,17.67
2023-05-09T07:03:07.421Z,17.28
2023-05-09T07:07:19.133Z,17.05
2023-05-09T07:11:37.016Z,16.95
2023-05-09T07:15:48.515Z,17.03
2023-05-09T07:20:00.101Z,17.21
2023-05-09T07:24:11.616Z,17.48
2023-05-09T07:28:23.489Z,17.32
2023-05-09T07:32:35.448Z,17.54
2023-05-09T07:36:46.970Z,17.66
2023-05-09T07:40:58.473Z,17.66
2023-05-09T07:45:10.816Z,17.87
2023-05-09T07:49:22.324Z,18.09
2023-05-09T07:53:33.865Z,18.12
2023-05-09T07:57:45.352Z,18.04
2023-05-09T08:01:56.860Z,18.27
2023-05-09T08:06:08.378Z,18.16
2023-05-09T08:10:21.737Z,18.16
2023-05-09T08:14:33.301Z,18.14
2023-05-09T08:18:45.291Z,18.10
2023-05-09T08:22:56.784Z,18.06
2023-05-09T08:27:08.436Z,18.15
2023-05-09T08:31:20.097Z,17.89
2023-05-09T08:35:31.603Z,18.08
2023-05-09T08:39:43.188Z,18.18
2023-05-09T08:43:55.372Z,18.15
2023-05-09T08:48:08.293Z,18.50
2023-05-09T08:52:21.032Z,18.76
2023-05-09T08:56:32.613Z,18.79
2023-05-09T09:00:44.770Z,18.92
2023-05-09T09:04:56.404Z,19.09
2023-05-09T09:09:09.098Z,19.01
2023-05-09T09:13:21.865Z,19.07
2023-05-09T09:17:37.503Z,19.48
2023-05-09T09:21:53.834Z,19.55
2023-05-09T09:26:05.454Z,19.94
2023-05-09T09:30:17.493Z,19.99
2023-05-09T09:34:29.274Z,20.11
2023-05-09T09:38:43.687Z,20.09
2023-05-09T09:42:55.178Z,19.62
2023-05-09T09:47:09.859Z,20.16
2023-05-09T09:51:21.494Z,20.10
2023-05-09T09:55:35.097Z,20.22
2023-05-09T09:59:58.144Z,19.93
2023-05-09T10:04:16.117Z,19.77
2023-05-09T10:08:27.704Z,19.94
2023-05-09T10:12:42.457Z,20.13
2023-05-09T10:16:56.667Z,20.33
2023-05-09T10:21:11.785Z,20.44
2023-05-09T10:25:54.008Z,20.35
2023-05-09T10:30:13.526Z,20.32
2023-05-09T10:34:26.196Z,20.62
2023-05-09T10:38:38.244Z,20.84
2023-05-09T10:42:49.790Z,21.04
2023-05-09T10:47:02.637Z,21.07
2023-05-09T10:51:14.187Z,20.96
2023-05-09T10:55:36.254Z,21.02
2023-05-09T10:59:51.272Z,20.90
2023-05-09T11:04:14.251Z,21.05
2023-05-09T11:08:26.694Z,21.08
2023-05-09T11:12:57.506Z,20.90
2023-05-09T11:17:22.914Z,20.99
2023-05-09T11:21:36.676Z,21.19
2023-05-09T11:25:49.485Z,21.38
2023-05-09T11:30:05.674Z,21.48
2023-05-09T11:34:19.896Z,21.69
2023-05-09T11:38:41.578Z,21.64
2023-05-09T11:42:58.006Z,21.62
2023-05-09T11:47:11.636Z,21.66
2023-05-09T11:51:23.176Z,21.69
2023-05-09T11:55:38.005Z,21.84
2023-05-09T11:59:49.504Z,21.69
2023-05-09T12:04:02.206Z,21.80
2023-05-09T12:08:15.370Z,21.84
2023-05-09T12:12:26.980Z,21.82
2023-05-09T12:16:45.335Z,21.95
2023-05-09T12:20:57.356Z,22.16
2023-05-09T12:25:10.660Z,22.29
2023-05-09T12:29:23.785Z,22.28
2023-05-09T12:33:38.251Z,22.01
2023-05-09T12:37:57.916Z,21.84
2023-05-09T12:42:13.606Z,21.86
2023-05-09T12:46:25.528Z,21.80
2023-05-09T12:50:37.092Z,21.68
2023-05-09T12:54:49.004Z,21.48
2023-05-09T12:59:00.513Z,21.45
2023-05-09T13:03:42.352Z,21.44
2023-05-09T13:07:57.071Z,21.61
2023-05-09T13:12:09.959Z,21.66
2023-05-09T13:16:21.918Z,21.68
2023-05-09T13:20:33.457Z,21.57
2023-05-09T13:24:44.988Z,21.42
2023-05-09T13:28:56.698Z,21.23
2023-05-09T13:33:21.210Z,21.09
2023-05-09T13:37:36.489Z,21.09
2023-05-09T13:41:48.586Z,21.00
2023-05-09T13:46:00.312Z,20.84
2023-05-09T13:50:12.305Z,20.86
2023-05-09T13:54:24.133Z,20.83
2023-05-09T13:58:36.078Z,20.78
2023-05-09T14:02:48.088Z,20.68
2023-05-09T14:07:00.797Z,20.53
2023-05-09T14:11:12.320Z,20.42
2023-05-09T14:15:23.917Z,20.37
2023-05-09T14:19:35.459Z,20.32
2023-05-09T14:23:47.023Z,20.24
2023-05-09T14:27:59.554Z,20.04
2023-05-09T14:32:12.841Z,19.83
2023-05-09T14:36:24.469Z,19.77
2023-05-09T14:40:36.933Z,19.43
2023-05-09T14:44:48.702Z,19.16
2023-05-09T14:49:04.234Z,19.07
2023-05-09T14:53:16.399Z,18.84
2023-05-09T14:57:28.263Z,18.89
2023-05-09T15:01:39.967Z,18.73
2023-05-09T15:05:51.846Z,18.56
2023-05-09T15:10:03.591Z,18.53
2023-05-09T15:14:16.718Z,18.35
2023-05-09T15:18:28.685Z,18.15
2023-05-09T15:22:40.572Z,18.05
2023-05-09T15:26:52.250Z,17.79
2023-05-09T15:31:04.107Z,17.76
2023-05-09T15:35:16.066Z,17.62
2023-05-09T15:39:27.854Z,17.47
2023-05-09T15:43:39.348Z,17.16
2023-05-09T15:47:50.865Z,17.12
2023-05-09T15:52:10.556Z,17.01
2023-05-09T15:56:22.249Z,16.85
2023-05-09T16:00:33.752Z,16.58
2023-05-09T16:04:45.272Z,16.49
2023-05-09T16:08:57.091Z,16.46
2023-05-09T16:13:08.686Z,16.40
2023-05-09T16:17:20.291Z,16.37
2023-05-09T16:21:32.936Z,16.35
2023-05-09T16:25:44.944Z,16.33
2023-05-09T16:29:56.447Z,16.40
2023-05-09T16:34:08.053Z,16.35
2023-05-09T16:38:19.561Z,16.35
2023-05-09T16:42:31.084Z,16.39
2023-05-09T16:46:42.849Z,16.28
2023-05-09T16:50:54.392Z,16.20
2023-05-09T16:55:06.383Z,16.15
2023-05-09T16:59:18.627Z,16.03
2023-05-09T17:03:30.115Z,15.97
2023-05-09T17:07:41.731Z,15.69
2023-05-09T17:11:53.234Z,15.60
2023-05-09T17:16:04.962Z,15.54
2023-05-09T17:20:16.691Z,15.47
2023-05-09T17:24:28.333Z,15.46
2023-05-09T17:28:39.880Z,15.50
2023-05-09T17:32:51.376Z,15.47
2023-05-09T17:37:03.010Z,15.33
2023-05-09T17:41:14.528Z,15.31
2023-05-09T17:45:26.531Z,15.32
2023-05-09T17:49:38.063Z,15.30
2023-05-09T17:53:49.635Z,15.24
2023-05-09T17:58:01.141Z,15.27
2023-05-09T18:02:12.714Z,15.13
2023-05-09T18:06:24.285Z,15.06
2023-05-09T18:10:35.838Z,15.06
2023-05-09T18:14:47.981Z,15.03
2023-05-09T18:18:59.461Z,15.05
2023-05-09T18:23:11.496Z,15.02
2023-05-09T18:27:23.106Z,15.04
2023-05-09T18:31:38.704Z,14.91
2023-05-09T18:35:50.695Z,14.93
2023-05-09T18:40:02.519Z,14.98
2023-05-09T18:44:14.048Z,14.88
2023-05-09T18:48:25.784Z,14.81
2023-05-09T18:52:37.476Z,14.67
2023-05-09T18:56:49.536Z,14.62
2023-05-09T19:01:01.343Z,14.60
2023-05-09T19:05:12.935Z,14.66
2023-05-09T19:09:24.454Z,14.68
2023-05-09T19:13:38.357Z,14.50
2023-05-09T19:17:50.106Z,14.48
2023-05-09T19:22:01.735Z,14.38
2023-05-09T19:26:15.394Z,14.35
2023-05-09T19:30:26.918Z,14.28
2023-05-09T19:34:38.428Z,14.36
2023-05-09T19:38:49.990Z,14.21
2023-05-09T19:43:01.572Z,14.28
2023-05-09T19:47:13.078Z,14.21
2023-05-09T19:51:24.571Z,14.34
2023-05-09T19:55:36.423Z,14.20
2023-05-09T19:59:47.920Z,14.20
2023-05-09T20:03:59.510Z,14.10
2023-05-09T20:08:11.124Z,13.98
2023-05-09T20:12:22.655Z,13.89
2023-05-09T20:16:34.251Z,13.87
2023-05-09T20:20:45.810Z,13.92
2023-05-09T20:24:57.409Z,13.87
2023-05-09T20:29:09.008Z,13.79
2023-05-09T20:33:20.543Z,13.69
2023-05-09T20:37:32.071Z,13.69
2023-05-09T20:41:44.874Z,13.78
2023-05-09T20:45:56.573Z,13.82
2023-05-09T20:50:08.424Z,13.74
2023-05-09T20:54:20.604Z,13.75
2023-05-09T20:58:34.259Z,13.74
2023-05-09T21:02:45.958Z,13.71
2023-05-09T21:06:57.478Z,13.66
2023-05-09T21:11:09.218Z,13.66
2023-05-09T21:15:20.765Z,13.71
2023-05-09T21:19:32.263Z,13.61
2023-05-09T21:23:43.772Z,13.57
2023-05-09T21:27:56.245Z,13.53
